Sunday, January 21, 2018, 3:37 PM EST
Back to Local

KELZ, Wellsville Municipal Airport

Location: Wellsville, NY, United States Lat: 42.1
Local Time: 3:37 PM EST (20:37 GMT) Lon: -78
Time Zone: US/Eastern Elev: 2122 ft

Show me the last for .
Show Coded

Time T Td Feel RH Dir Speed Gust Alt SLP Vis Weather Sky Remarks
2018-01-21 15:06 40 38 36 92 180° 6 - 30.04 - 4 BR OVC004 None
2018-01-21 14:56 40 37 37 89 210° 5 - 30.04 30.09 4 BR OVC005 None
2018-01-21 14:06 40 36 34 85 190° 8 - 30.05 - 9 OVC007 None
2018-01-21 13:56 40 36 37 85 200° 5 - 30.05 30.10 9 BKN010 OVC016 None
2018-01-21 13:45 40 36 36 85 210° 6 - 30.05 - 10 BKN010 OVC018 None
2018-01-21 12:56 40 35 34 82 200° 8 - 30.06 30.11 9 SCT008 BKN021 OVC035 6-hr Min Temp (1pm): 36.0°F
6-hr Max Temp (1pm): 39.9°F
2018-01-21 11:56 39 35 33 85 220° 8 - 30.08 30.13 7 OVC007 None
2018-01-21 11:14 38 35 34 89 210° 5 - 30.10 - 6 BR OVC006 None
2018-01-21 10:56 38 35 36 89 220° 3 - 30.11 30.16 4 BR OVC004 None
2018-01-21 10:48 37 35 - 92 - Calm - 30.11 - 4 BR OVC003 None
2018-01-21 10:41 37 35 34 92 210° 3 - 30.11 - 2 BR OVC003 None
2018-01-21 10:34 37 35 32 92 220° 6 - 30.11 - 1 BR OVC003 None
2018-01-21 10:26 37 35 32 92 220° 6 - 30.11 - 2 BR OVC003 None
2018-01-21 09:56 37 35 33 92 240° 5 - 30.11 30.16 2 BR OVC004 None
2018-01-21 09:52 37 36 34 93 230° 5 - 30.11 - 2 BR OVC004 None
2018-01-21 09:23 36 34 31 92 230° 6 - 30.11 - 1 BR OVC006 None
2018-01-21 09:14 36 34 31 92 220° 6 - 30.11 - 2 BR OVC006 None
2018-01-21 08:56 37 33 33 85 230° 5 - 30.10 30.15 5 BR OVC007 None
2018-01-21 08:44 36 33 33 89 Variable 3 - 30.10 - 5 BR OVC009 None
2018-01-21 07:56 36 33 - 89 - Calm - 30.09 30.14 5 BR OVC012 None
2018-01-21 06:56 36 33 30 89 280° 7 - 30.08 30.13 6 BR OVC013 6-hr Min Temp (7am): 34.0°F
6-hr Max Temp (7am): 36.0°F
2018-01-21 06:48 36 33 31 89 270° 6 - 30.08 - 6 BR OVC011 None
2018-01-21 06:25 36 32 32 85 260° 5 - 30.08 - 5 BR OVC009 None
2018-01-21 05:56 36 32 30 85 260° 7 - 30.08 30.12 6 BR OVC010 None
2018-01-21 04:56 36 31 29 81 270° 9 - 30.07 30.11 6 HZ OVC010 None
2018-01-21 03:56 35 29 29 78 280° 8 - 30.07 30.11 8 OVC013 None
2018-01-21 03:23 35 29 27 78 270° 12 - 30.06 - 9 OVC014 None
2018-01-21 02:56 35 28 29 75 260° 7 - 30.05 30.10 10 BKN016 None
2018-01-21 01:56 35 28 27 75 270° 10 - 30.04 30.08 10 CLR None
2018-01-21 00:56 35 27 27 72 260° 10 - 30.03 30.08 10 CLR 6-hr Min Temp (1am): 35.1°F
6-hr Max Temp (1am): 39.9°F
2018-01-20 23:56 36 26 28 66 270° 10 - 30.03 30.08 10 CLR 24-hr Min Temp (12am): 32.0°F
24-hr Max Temp (12am): 44.1°F
2018-01-20 22:56 36 26 29 66 260° 9 - 30.01 30.06 10 CLR None
2018-01-20 21:56 37 26 29 64 270° 13 - 30.01 30.07 10 CLR None
2018-01-20 20:56 38 26 31 61 260° 9 - 30.00 30.05 10 CLR None
2018-01-20 19:56 38 26 32 61 260° 8 - 29.99 30.05 10 CLR None
2018-01-20 18:56 40 26 33 57 250° 13 - 29.98 30.03 10 CLR 6-hr Min Temp (7pm): 39.9°F
6-hr Max Temp (7pm): 44.1°F
2018-01-20 17:56 41 27 31 57 270° 16 24 29.97 30.02 10 CLR None
2018-01-20 16:56 42 27 35 54 260° 13 - 29.93 29.98 10 CLR None
2018-01-20 15:56 44 27 35 50 270° 13 22 29.90 29.94 10 CLR None

Support USWX by starting your Amazon purchase here.